sensor_id;sensor_type;location;lat;lon;timestamp;P1;durP1;ratioP1;P2;durP2;ratioP2
17207;SDS011;8720;48.488;9.202;2023-04-03T00:00:35;4.50;;;4.10;;
17207;SDS011;8720;48.488;9.202;2023-04-03T00:03:02;10.80;;;7.93;;
17207;SDS011;8720;48.488;9.202;2023-04-03T00:05:31;4.80;;;4.40;;
17207;SDS011;8720;48.488;9.202;2023-04-03T00:07:59;4.20;;;3.90;;
17207;SDS011;8720;48.488;9.202;2023-04-03T00:10:27;4.03;;;3.60;;
17207;SDS011;8720;48.488;9.202;2023-04-03T00:12:54;5.47;;;4.30;;
17207;SDS011;8720;48.488;9.202;2023-04-03T00:15:22;5.40;;;3.90;;
17207;SDS011;8720;48.488;9.202;2023-04-03T00:17:49;3.90;;;3.50;;
17207;SDS011;8720;48.488;9.202;2023-04-03T00:20:17;4.43;;;3.80;;
17207;SDS011;8720;48.488;9.202;2023-04-03T00:22:45;4.20;;;3.80;;
17207;SDS011;8720;48.488;9.202;2023-04-03T00:25:13;4.70;;;4.20;;
17207;SDS011;8720;48.488;9.202;2023-04-03T00:27:40;4.57;;;4.17;;
17207;SDS011;8720;48.488;9.202;2023-04-03T00:30:08;5.40;;;4.13;;
17207;SDS011;8720;48.488;9.202;2023-04-03T00:32:40;4.73;;;4.23;;
17207;SDS011;8720;48.488;9.202;2023-04-03T00:35:08;5.00;;;4.33;;
17207;SDS011;8720;48.488;9.202;2023-04-03T00:37:35;4.57;;;4.17;;
17207;SDS011;8720;48.488;9.202;2023-04-03T00:40:05;5.40;;;4.90;;
17207;SDS011;8720;48.488;9.202;2023-04-03T00:42:35;6.33;;;3.83;;
17207;SDS011;8720;48.488;9.202;2023-04-03T00:47:59;4.93;;;4.00;;
17207;SDS011;8720;48.488;9.202;2023-04-03T00:50:32;4.70;;;4.20;;
17207;SDS011;8720;48.488;9.202;2023-04-03T00:53:05;4.07;;;3.67;;
17207;SDS011;8720;48.488;9.202;2023-04-03T00:55:38;4.67;;;4.27;;
17207;SDS011;8720;48.488;9.202;2023-04-03T00:58:07;4.00;;;3.60;;
17207;SDS011;8720;48.488;9.202;2023-04-03T01:00:36;4.17;;;3.80;;
17207;SDS011;8720;48.488;9.202;2023-04-03T01:03:09;4.53;;;4.10;;
17207;SDS011;8720;48.488;9.202;2023-04-03T01:05:38;6.20;;;4.00;;
17207;SDS011;8720;48.488;9.202;2023-04-03T01:08:07;3.80;;;3.50;;
17207;SDS011;8720;48.488;9.202;2023-04-03T01:10:34;4.03;;;3.73;;
17207;SDS011;8720;48.488;9.202;2023-04-03T01:13:08;4.37;;;3.97;;
17207;SDS011;8720;48.488;9.202;2023-04-03T01:15:49;5.97;;;3.60;;
17207;SDS011;8720;48.488;9.202;2023-04-03T01:18:17;4.27;;;3.70;;
17207;SDS011;8720;48.488;9.202;2023-04-03T01:24:25;4.93;;;4.13;;
17207;SDS011;8720;48.488;9.202;2023-04-03T01:27:03;4.67;;;4.13;;
17207;SDS011;8720;48.488;9.202;2023-04-03T01:29:37;5.20;;;3.77;;
17207;SDS011;8720;48.488;9.202;2023-04-03T01:32:07;5.90;;;4.20;;
17207;SDS011;8720;48.488;9.202;2023-04-03T01:34:35;4.87;;;4.40;;
17207;SDS011;8720;48.488;9.202;2023-04-03T01:37:03;4.73;;;3.70;;
17207;SDS011;8720;48.488;9.202;2023-04-03T01:39:30;4.50;;;4.10;;
17207;SDS011;8720;48.488;9.202;2023-04-03T01:41:58;4.10;;;3.70;;
17207;SDS011;8720;48.488;9.202;2023-04-03T01:44:33;4.93;;;4.10;;
17207;SDS011;8720;48.488;9.202;2023-04-03T01:47:00;4.43;;;4.03;;
17207;SDS011;8720;48.488;9.202;2023-04-03T01:49:30;4.60;;;3.70;;
17207;SDS011;8720;48.488;9.202;2023-04-03T01:51:57;5.53;;;4.50;;
17207;SDS011;8720;48.488;9.202;2023-04-03T01:54:25;4.17;;;3.77;;
17207;SDS011;8720;48.488;9.202;2023-04-03T01:56:52;4.33;;;3.93;;
17207;SDS011;8720;48.488;9.202;2023-04-03T01:59:21;6.07;;;4.40;;
17207;SDS011;8720;48.488;9.202;2023-04-03T02:04:15;5.47;;;4.40;;
17207;SDS011;8720;48.488;9.202;2023-04-03T02:06:44;5.30;;;4.13;;
17207;SDS011;8720;48.488;9.202;2023-04-03T02:09:11;5.23;;;4.73;;
17207;SDS011;8720;48.488;9.202;2023-04-03T02:11:39;5.00;;;4.20;;
17207;SDS011;8720;48.488;9.202;2023-04-03T02:14:06;4.83;;;4.20;;
17207;SDS011;8720;48.488;9.202;2023-04-03T02:16:34;5.13;;;4.50;;
17207;SDS011;8720;48.488;9.202;2023-04-03T02:19:01;5.07;;;4.30;;
17207;SDS011;8720;48.488;9.202;2023-04-03T02:21:29;5.80;;;4.57;;
17207;SDS011;8720;48.488;9.202;2023-04-03T02:23:58;5.00;;;4.20;;
17207;SDS011;8720;48.488;9.202;2023-04-03T02:26:25;5.10;;;4.33;;
17207;SDS011;8720;48.488;9.202;2023-04-03T02:28:53;5.00;;;4.50;;
17207;SDS011;8720;48.488;9.202;2023-04-03T02:31:20;5.00;;;4.10;;
17207;SDS011;8720;48.488;9.202;2023-04-03T02:33:49;5.23;;;4.63;;
17207;SDS011;8720;48.488;9.202;2023-04-03T02:36:17;4.50;;;4.10;;
17207;SDS011;8720;48.488;9.202;2023-04-03T02:38:51;4.83;;;4.40;;
17207;SDS011;8720;48.488;9.202;2023-04-03T02:41:19;6.20;;;5.60;;
17207;SDS011;8720;48.488;9.202;2023-04-03T02:43:48;4.77;;;4.30;;
17207;SDS011;8720;48.488;9.202;2023-04-03T02:46:15;6.13;;;4.07;;
17207;SDS011;8720;48.488;9.202;2023-04-03T02:48:43;5.20;;;4.47;;
17207;SDS011;8720;48.488;9.202;2023-04-03T02:51:10;4.77;;;4.23;;
17207;SDS011;8720;48.488;9.202;2023-04-03T02:53:38;4.63;;;4.23;;
17207;SDS011;8720;48.488;9.202;2023-04-03T02:56:11;5.60;;;4.50;;
17207;SDS011;8720;48.488;9.202;2023-04-03T02:58:40;5.90;;;4.43;;
17207;SDS011;8720;48.488;9.202;2023-04-03T03:01:08;4.83;;;4.37;;
17207;SDS011;8720;48.488;9.202;2023-04-03T03:03:36;5.10;;;4.43;;
17207;SDS011;8720;48.488;9.202;2023-04-03T03:06:04;4.97;;;4.47;;
17207;SDS011;8720;48.488;9.202;2023-04-03T03:08:35;6.03;;;4.20;;
17207;SDS011;8720;48.488;9.202;2023-04-03T03:11:03;5.83;;;4.70;;
17207;SDS011;8720;48.488;9.202;2023-04-03T03:13:32;7.70;;;4.63;;
17207;SDS011;8720;48.488;9.202;2023-04-03T03:16:01;5.67;;;4.50;;
17207;SDS011;8720;48.488;9.202;2023-04-03T03:18:29;5.40;;;4.90;;
17207;SDS011;8720;48.488;9.202;2023-04-03T03:20:57;6.20;;;5.23;;
17207;SDS011;8720;48.488;9.202;2023-04-03T03:23:27;5.13;;;4.60;;
17207;SDS011;8720;48.488;9.202;2023-04-03T03:25:57;5.30;;;4.70;;
17207;SDS011;8720;48.488;9.202;2023-04-03T03:28:26;5.10;;;4.53;;
17207;SDS011;8720;48.488;9.202;2023-04-03T03:30:56;5.10;;;4.60;;
17207;SDS011;8720;48.488;9.202;2023-04-03T03:33:26;5.53;;;4.67;;
17207;SDS011;8720;48.488;9.202;2023-04-03T03:35:54;4.57;;;4.13;;
17207;SDS011;8720;48.488;9.202;2023-04-03T03:38:22;5.07;;;4.53;;
17207;SDS011;8720;48.488;9.202;2023-04-03T03:40:50;7.80;;;4.90;;
17207;SDS011;8720;48.488;9.202;2023-04-03T03:43:19;5.57;;;4.57;;
17207;SDS011;8720;48.488;9.202;2023-04-03T03:45:49;5.80;;;4.80;;
17207;SDS011;8720;48.488;9.202;2023-04-03T03:48:18;4.63;;;4.10;;
17207;SDS011;8720;48.488;9.202;2023-04-03T03:50:48;5.83;;;4.30;;
17207;SDS011;8720;48.488;9.202;2023-04-03T03:53:18;5.80;;;4.90;;
17207;SDS011;8720;48.488;9.202;2023-04-03T03:55:46;6.40;;;4.93;;
17207;SDS011;8720;48.488;9.202;2023-04-03T03:58:14;7.10;;;4.30;;
17207;SDS011;8720;48.488;9.202;2023-04-03T04:00:42;4.93;;;4.40;;
17207;SDS011;8720;48.488;9.202;2023-04-03T04:03:10;4.37;;;3.83;;
17207;SDS011;8720;48.488;9.202;2023-04-03T04:05:37;6.67;;;5.27;;
17207;SDS011;8720;48.488;9.202;2023-04-03T04:08:06;5.73;;;4.47;;
17207;SDS011;8720;48.488;9.202;2023-04-03T04:10:33;6.07;;;4.33;;
17207;SDS011;8720;48.488;9.202;2023-04-03T04:13:02;5.03;;;4.23;;
17207;SDS011;8720;48.488;9.202;2023-04-03T04:15:30;5.20;;;4.63;;
17207;SDS011;8720;48.488;9.202;2023-04-03T04:17:57;7.07;;;5.37;;
17207;SDS011;8720;48.488;9.202;2023-04-03T04:20:25;5.40;;;4.57;;
17207;SDS011;8720;48.488;9.202;2023-04-03T04:22:52;5.57;;;4.77;;
17207;SDS011;8720;48.488;9.202;2023-04-03T04:25:22;6.10;;;5.00;;
17207;SDS011;8720;48.488;9.202;2023-04-03T04:27:50;9.73;;;5.00;;
17207;SDS011;8720;48.488;9.202;2023-04-03T04:30:17;5.20;;;4.70;;
17207;SDS011;8720;48.488;9.202;2023-04-03T04:32:48;5.47;;;4.97;;
17207;SDS011;8720;48.488;9.202;2023-04-03T04:35:16;5.00;;;4.50;;
17207;SDS011;8720;48.488;9.202;2023-04-03T04:37:46;4.53;;;4.13;;
17207;SDS011;8720;48.488;9.202;2023-04-03T04:40:14;4.93;;;4.53;;
17207;SDS011;8720;48.488;9.202;2023-04-03T04:42:43;5.77;;;4.80;;
17207;SDS011;8720;48.488;9.202;2023-04-03T04:45:11;5.03;;;4.60;;
17207;SDS011;8720;48.488;9.202;2023-04-03T04:47:40;5.17;;;3.90;;
17207;SDS011;8720;48.488;9.202;2023-04-03T04:50:09;5.32;;;4.50;;
17207;SDS011;8720;48.488;9.202;2023-04-03T04:52:37;4.47;;;4.07;;
17207;SDS011;8720;48.488;9.202;2023-04-03T04:55:07;4.93;;;4.37;;
17207;SDS011;8720;48.488;9.202;2023-04-03T04:57:35;4.87;;;4.27;;
17207;SDS011;8720;48.488;9.202;2023-04-03T05:00:06;6.70;;;4.70;;
17207;SDS011;8720;48.488;9.202;2023-04-03T05:02:35;5.40;;;4.80;;
17207;SDS011;8720;48.488;9.202;2023-04-03T05:05:02;4.87;;;4.37;;
17207;SDS011;8720;48.488;9.202;2023-04-03T05:07:31;5.20;;;4.40;;
17207;SDS011;8720;48.488;9.202;2023-04-03T05:10:01;4.10;;;3.80;;
17207;SDS011;8720;48.488;9.202;2023-04-03T05:12:31;5.53;;;4.20;;
17207;SDS011;8720;48.488;9.202;2023-04-03T05:15:02;4.30;;;3.90;;
17207;SDS011;8720;48.488;9.202;2023-04-03T05:17:32;5.27;;;4.77;;
17207;SDS011;8720;48.488;9.202;2023-04-03T05:20:01;4.53;;;3.43;;
17207;SDS011;8720;48.488;9.202;2023-04-03T05:22:29;5.97;;;4.10;;
17207;SDS011;8720;48.488;9.202;2023-04-03T05:25:03;5.40;;;4.13;;
17207;SDS011;8720;48.488;9.202;2023-04-03T05:27:33;4.27;;;3.83;;
17207;SDS011;8720;48.488;9.202;2023-04-03T05:30:01;4.77;;;4.17;;
17207;SDS011;8720;48.488;9.202;2023-04-03T05:32:32;5.37;;;4.53;;
17207;SDS011;8720;48.488;9.202;2023-04-03T05:35:11;4.90;;;4.37;;
17207;SDS011;8720;48.488;9.202;2023-04-03T05:37:40;4.23;;;3.87;;
17207;SDS011;8720;48.488;9.202;2023-04-03T05:40:08;3.57;;;3.23;;
17207;SDS011;8720;48.488;9.202;2023-04-03T05:42:40;4.30;;;3.90;;
17207;SDS011;8720;48.488;9.202;2023-04-03T05:45:07;4.27;;;3.87;;
17207;SDS011;8720;48.488;9.202;2023-04-03T05:47:37;4.33;;;3.53;;
17207;SDS011;8720;48.488;9.202;2023-04-03T05:50:06;4.23;;;3.83;;
17207;SDS011;8720;48.488;9.202;2023-04-03T05:52:35;5.33;;;3.40;;
17207;SDS011;8720;48.488;9.202;2023-04-03T05:55:06;3.70;;;3.33;;
17207;SDS011;8720;48.488;9.202;2023-04-03T05:57:35;3.90;;;3.50;;
17207;SDS011;8720;48.488;9.202;2023-04-03T06:00:04;3.50;;;3.20;;
17207;SDS011;8720;48.488;9.202;2023-04-03T06:02:40;3.73;;;3.27;;
17207;SDS011;8720;48.488;9.202;2023-04-03T06:05:15;4.07;;;3.23;;
17207;SDS011;8720;48.488;9.202;2023-04-03T06:07:42;3.87;;;3.43;;
17207;SDS011;8720;48.488;9.202;2023-04-03T06:10:11;4.50;;;3.80;;
17207;SDS011;8720;48.488;9.202;2023-04-03T06:12:38;3.90;;;3.50;;
17207;SDS011;8720;48.488;9.202;2023-04-03T06:15:07;3.77;;;3.37;;
17207;SDS011;8720;48.488;9.202;2023-04-03T06:17:35;3.50;;;3.20;;
17207;SDS011;8720;48.488;9.202;2023-04-03T06:20:04;3.87;;;2.90;;
17207;SDS011;8720;48.488;9.202;2023-04-03T06:22:33;4.63;;;2.93;;
17207;SDS011;8720;48.488;9.202;2023-04-03T06:25:01;3.37;;;2.70;;
17207;SDS011;8720;48.488;9.202;2023-04-03T06:27:30;4.33;;;3.90;;
17207;SDS011;8720;48.488;9.202;2023-04-03T06:29:57;5.90;;;3.70;;
17207;SDS011;8720;48.488;9.202;2023-04-03T06:32:24;3.90;;;3.47;;
17207;SDS011;8720;48.488;9.202;2023-04-03T06:34:52;3.90;;;3.33;;
17207;SDS011;8720;48.488;9.202;2023-04-03T06:37:22;3.90;;;3.50;;
17207;SDS011;8720;48.488;9.202;2023-04-03T06:39:51;3.90;;;3.60;;
17207;SDS011;8720;48.488;9.202;2023-04-03T06:42:18;4.07;;;3.60;;
17207;SDS011;8720;48.488;9.202;2023-04-03T06:44:53;3.53;;;3.23;;
17207;SDS011;8720;48.488;9.202;2023-04-03T06:47:20;4.50;;;3.30;;
17207;SDS011;8720;48.488;9.202;2023-04-03T06:49:48;6.73;;;3.23;;
17207;SDS011;8720;48.488;9.202;2023-04-03T06:52:15;4.00;;;3.10;;
17207;SDS011;8720;48.488;9.202;2023-04-03T06:54:44;4.73;;;3.30;;
17207;SDS011;8720;48.488;9.202;2023-04-03T06:57:12;3.50;;;3.20;;
17207;SDS011;8720;48.488;9.202;2023-04-03T06:59:40;3.90;;;3.30;;
17207;SDS011;8720;48.488;9.202;2023-04-03T07:02:08;3.53;;;2.80;;
17207;SDS011;8720;48.488;9.202;2023-04-03T07:04:38;3.33;;;2.93;;
17207;SDS011;8720;48.488;9.202;2023-04-03T07:07:06;5.90;;;3.40;;
17207;SDS011;8720;48.488;9.202;2023-04-03T07:09:33;4.80;;;3.07;;
17207;SDS011;8720;48.488;9.202;2023-04-03T07:12:02;3.27;;;2.97;;
17207;SDS011;8720;48.488;9.202;2023-04-03T07:14:30;3.90;;;3.30;;
17207;SDS011;8720;48.488;9.202;2023-04-03T07:16:57;4.27;;;3.40;;
17207;SDS011;8720;48.488;9.202;2023-04-03T07:19:24;4.87;;;3.50;;
17207;SDS011;8720;48.488;9.202;2023-04-03T07:21:53;4.85;;;4.35;;
17207;SDS011;8720;48.488;9.202;2023-04-03T07:24:20;4.17;;;3.60;;
17207;SDS011;8720;48.488;9.202;2023-04-03T07:26:48;4.63;;;3.47;;
17207;SDS011;8720;48.488;9.202;2023-04-03T07:29:18;5.27;;;4.40;;
17207;SDS011;8720;48.488;9.202;2023-04-03T07:31:46;5.73;;;3.77;;
17207;SDS011;8720;48.488;9.202;2023-04-03T07:34:14;3.63;;;3.20;;
17207;SDS011;8720;48.488;9.202;2023-04-03T07:36:42;5.67;;;3.77;;
17207;SDS011;8720;48.488;9.202;2023-04-03T07:39:09;4.93;;;3.43;;
17207;SDS011;8720;48.488;9.202;2023-04-03T07:41:36;5.50;;;3.17;;
17207;SDS011;8720;48.488;9.202;2023-04-03T07:44:04;3.87;;;3.57;;
17207;SDS011;8720;48.488;9.202;2023-04-03T07:46:36;3.70;;;3.00;;
17207;SDS011;8720;48.488;9.202;2023-04-03T07:49:04;3.40;;;2.57;;
17207;SDS011;8720;48.488;9.202;2023-04-03T07:51:31;4.43;;;3.33;;
17207;SDS011;8720;48.488;9.202;2023-04-03T07:54:05;3.20;;;2.90;;
17207;SDS011;8720;48.488;9.202;2023-04-03T07:56:32;3.97;;;2.90;;
17207;SDS011;8720;48.488;9.202;2023-04-03T07:59:00;3.43;;;2.87;;
17207;SDS011;8720;48.488;9.202;2023-04-03T08:01:27;3.00;;;2.80;;
17207;SDS011;8720;48.488;9.202;2023-04-03T08:03:59;4.27;;;3.63;;
17207;SDS011;8720;48.488;9.202;2023-04-03T08:06:27;2.97;;;2.47;;
17207;SDS011;8720;48.488;9.202;2023-04-03T08:08:55;4.53;;;3.07;;
17207;SDS011;8720;48.488;9.202;2023-04-03T08:11:24;3.37;;;3.07;;
17207;SDS011;8720;48.488;9.202;2023-04-03T08:13:51;3.30;;;3.00;;
17207;SDS011;8720;48.488;9.202;2023-04-03T08:16:22;2.80;;;2.53;;
17207;SDS011;8720;48.488;9.202;2023-04-03T08:18:52;3.73;;;2.60;;
17207;SDS011;8720;48.488;9.202;2023-04-03T08:21:22;3.10;;;2.90;;
17207;SDS011;8720;48.488;9.202;2023-04-03T08:23:51;3.23;;;2.93;;
17207;SDS011;8720;48.488;9.202;2023-04-03T08:26:19;3.30;;;3.00;;
17207;SDS011;8720;48.488;9.202;2023-04-03T08:28:48;3.30;;;2.97;;
17207;SDS011;8720;48.488;9.202;2023-04-03T08:31:17;3.40;;;2.80;;
17207;SDS011;8720;48.488;9.202;2023-04-03T08:33:45;4.20;;;2.87;;
17207;SDS011;8720;48.488;9.202;2023-04-03T08:36:19;4.10;;;2.80;;
17207;SDS011;8720;48.488;9.202;2023-04-03T08:38:51;3.37;;;3.07;;
17207;SDS011;8720;48.488;9.202;2023-04-03T08:41:25;4.60;;;3.33;;
17207;SDS011;8720;48.488;9.202;2023-04-03T08:44:03;3.10;;;2.80;;
17207;SDS011;8720;48.488;9.202;2023-04-03T08:46:46;3.83;;;3.40;;
17207;SDS011;8720;48.488;9.202;2023-04-03T08:49:35;3.10;;;2.80;;
17207;SDS011;8720;48.488;9.202;2023-04-03T08:52:14;10.40;;;3.20;;
17207;SDS011;8720;48.488;9.202;2023-04-03T08:54:48;3.20;;;2.90;;
17207;SDS011;8720;48.488;9.202;2023-04-03T08:57:20;3.40;;;2.80;;
17207;SDS011;8720;48.488;9.202;2023-04-03T08:59:57;3.67;;;2.80;;
17207;SDS011;8720;48.488;9.202;2023-04-03T09:02:43;2.63;;;2.43;;
17207;SDS011;8720;48.488;9.202;2023-04-03T09:05:14;3.23;;;2.93;;
17207;SDS011;8720;48.488;9.202;2023-04-03T09:07:46;3.23;;;2.93;;
17207;SDS011;8720;48.488;9.202;2023-04-03T09:10:26;4.27;;;2.73;;
17207;SDS011;8720;48.488;9.202;2023-04-03T09:12:59;3.67;;;3.10;;
17207;SDS011;8720;48.488;9.202;2023-04-03T09:15:36;3.10;;;2.60;;
17207;SDS011;8720;48.488;9.202;2023-04-03T09:18:04;3.50;;;2.67;;
17207;SDS011;8720;48.488;9.202;2023-04-03T09:20:43;2.73;;;2.53;;
17207;SDS011;8720;48.488;9.202;2023-04-03T09:23:24;5.07;;;3.10;;
17207;SDS011;8720;48.488;9.202;2023-04-03T09:25:58;3.23;;;2.90;;
17207;SDS011;8720;48.488;9.202;2023-04-03T09:28:32;3.47;;;3.10;;
17207;SDS011;8720;48.488;9.202;2023-04-03T09:31:11;3.13;;;2.60;;
17207;SDS011;8720;48.488;9.202;2023-04-03T09:33:46;3.60;;;2.83;;
17207;SDS011;8720;48.488;9.202;2023-04-03T09:39:11;5.30;;;3.17;;
17207;SDS011;8720;48.488;9.202;2023-04-03T09:41:41;4.10;;;3.63;;
17207;SDS011;8720;48.488;9.202;2023-04-03T09:44:23;3.67;;;3.17;;
17207;SDS011;8720;48.488;9.202;2023-04-03T09:46:53;3.80;;;2.73;;
17207;SDS011;8720;48.488;9.202;2023-04-03T09:49:20;3.13;;;2.83;;
17207;SDS011;8720;48.488;9.202;2023-04-03T09:51:48;3.30;;;3.00;;
17207;SDS011;8720;48.488;9.202;2023-04-03T09:54:32;4.03;;;2.83;;
17207;SDS011;8720;48.488;9.202;2023-04-03T09:57:09;5.90;;;2.87;;
17207;SDS011;8720;48.488;9.202;2023-04-03T09:59:41;3.83;;;3.53;;
17207;SDS011;8720;48.488;9.202;2023-04-03T10:02:21;6.80;;;2.97;;
17207;SDS011;8720;48.488;9.202;2023-04-03T10:04:58;4.93;;;3.43;;
17207;SDS011;8720;48.488;9.202;2023-04-03T10:07:27;3.30;;;3.00;;
17207;SDS011;8720;48.488;9.202;2023-04-03T10:10:03;3.20;;;2.90;;
17207;SDS011;8720;48.488;9.202;2023-04-03T10:12:45;3.83;;;3.27;;
17207;SDS011;8720;48.488;9.202;2023-04-03T10:15:13;4.37;;;3.57;;
17207;SDS011;8720;48.488;9.202;2023-04-03T10:17:49;3.43;;;3.13;;
17207;SDS011;8720;48.488;9.202;2023-04-03T10:20:30;3.40;;;3.10;;
17207;SDS011;8720;48.488;9.202;2023-04-03T10:23:14;5.70;;;3.60;;
17207;SDS011;8720;48.488;9.202;2023-04-03T10:25:50;4.27;;;3.37;;
17207;SDS011;8720;48.488;9.202;2023-04-03T10:28:37;4.73;;;3.67;;
17207;SDS011;8720;48.488;9.202;2023-04-03T10:31:15;5.80;;;3.30;;
17207;SDS011;8720;48.488;9.202;2023-04-03T10:33:53;3.83;;;3.00;;
17207;SDS011;8720;48.488;9.202;2023-04-03T10:36:36;3.30;;;2.83;;
17207;SDS011;8720;48.488;9.202;2023-04-03T10:39:17;3.50;;;3.20;;
17207;SDS011;8720;48.488;9.202;2023-04-03T10:42:02;4.70;;;3.53;;
17207;SDS011;8720;48.488;9.202;2023-04-03T10:44:36;5.63;;;3.60;;
17207;SDS011;8720;48.488;9.202;2023-04-03T10:47:21;3.50;;;3.20;;
17207;SDS011;8720;48.488;9.202;2023-04-03T10:50:00;3.47;;;3.17;;
17207;SDS011;8720;48.488;9.202;2023-04-03T10:52:47;3.40;;;2.50;;
17207;SDS011;8720;48.488;9.202;2023-04-03T10:55:30;3.93;;;3.53;;
17207;SDS011;8720;48.488;9.202;2023-04-03T10:58:06;3.77;;;2.93;;
17207;SDS011;8720;48.488;9.202;2023-04-03T11:00:43;3.87;;;3.20;;
17207;SDS011;8720;48.488;9.202;2023-04-03T11:03:17;3.70;;;3.00;;
17207;SDS011;8720;48.488;9.202;2023-04-03T11:05:59;4.00;;;2.93;;
17207;SDS011;8720;48.488;9.202;2023-04-03T11:08:33;3.93;;;3.27;;
17207;SDS011;8720;48.488;9.202;2023-04-03T11:11:10;5.27;;;4.03;;
17207;SDS011;8720;48.488;9.202;2023-04-03T11:13:45;3.57;;;3.27;;
17207;SDS011;8720;48.488;9.202;2023-04-03T11:16:23;2.70;;;2.50;;
17207;SDS011;8720;48.488;9.202;2023-04-03T11:18:56;4.57;;;3.00;;
17207;SDS011;8720;48.488;9.202;2023-04-03T11:21:32;3.33;;;2.50;;
17207;SDS011;8720;48.488;9.202;2023-04-03T11:24:05;3.57;;;2.90;;
17207;SDS011;8720;48.488;9.202;2023-04-03T11:26:46;3.90;;;3.23;;
17207;SDS011;8720;48.488;9.202;2023-04-03T11:29:21;6.60;;;3.00;;
17207;SDS011;8720;48.488;9.202;2023-04-03T11:32:02;3.60;;;3.03;;
17207;SDS011;8720;48.488;9.202;2023-04-03T11:34:51;2.83;;;2.50;;
17207;SDS011;8720;48.488;9.202;2023-04-03T11:37:25;3.60;;;2.73;;
17207;SDS011;8720;48.488;9.202;2023-04-03T11:40:00;3.23;;;2.50;;
17207;SDS011;8720;48.488;9.202;2023-04-03T11:42:34;2.87;;;2.33;;
17207;SDS011;8720;48.488;9.202;2023-04-03T12:12:57;4.03;;;2.07;;
17207;SDS011;8720;48.488;9.202;2023-04-03T12:24:37;5.37;;;2.73;;
17207;SDS011;8720;48.488;9.202;2023-04-03T12:30:16;3.77;;;2.30;;
17207;SDS011;8720;48.488;9.202;2023-04-03T12:32:56;3.20;;;2.60;;
17207;SDS011;8720;48.488;9.202;2023-04-03T12:35:51;5.70;;;2.40;;
17207;SDS011;8720;48.488;9.202;2023-04-03T12:38:37;3.30;;;2.60;;
17207;SDS011;8720;48.488;9.202;2023-04-03T12:41:37;3.90;;;3.00;;
17207;SDS011;8720;48.488;9.202;2023-04-03T12:44:20;3.07;;;2.30;;
17207;SDS011;8720;48.488;9.202;2023-04-03T12:47:08;4.90;;;2.57;;
17207;SDS011;8720;48.488;9.202;2023-04-03T12:49:52;3.63;;;2.10;;
17207;SDS011;8720;48.488;9.202;2023-04-03T12:52:30;3.87;;;2.60;;
17207;SDS011;8720;48.488;9.202;2023-04-03T12:55:07;2.27;;;2.07;;
17207;SDS011;8720;48.488;9.202;2023-04-03T12:57:43;2.37;;;2.10;;
17207;SDS011;8720;48.488;9.202;2023-04-03T13:03:04;2.27;;;1.90;;
17207;SDS011;8720;48.488;9.202;2023-04-03T13:05:49;3.40;;;2.40;;
17207;SDS011;8720;48.488;9.202;2023-04-03T13:08:18;2.93;;;2.17;;
17207;SDS011;8720;48.488;9.202;2023-04-03T13:10:51;3.40;;;2.60;;
17207;SDS011;8720;48.488;9.202;2023-04-03T13:13:25;3.30;;;2.60;;
17207;SDS011;8720;48.488;9.202;2023-04-03T13:15:53;4.07;;;2.47;;
17207;SDS011;8720;48.488;9.202;2023-04-03T13:18:25;3.13;;;2.80;;
17207;SDS011;8720;48.488;9.202;2023-04-03T13:20:59;4.27;;;2.40;;
17207;SDS011;8720;48.488;9.202;2023-04-03T13:23:34;2.40;;;2.07;;
17207;SDS011;8720;48.488;9.202;2023-04-03T13:26:06;2.97;;;2.37;;
17207;SDS011;8720;48.488;9.202;2023-04-03T13:28:35;2.37;;;2.13;;
17207;SDS011;8720;48.488;9.202;2023-04-03T13:31:07;2.87;;;2.10;;
17207;SDS011;8720;48.488;9.202;2023-04-03T13:33:52;3.20;;;2.20;;
17207;SDS011;8720;48.488;9.202;2023-04-03T13:36:24;3.57;;;2.77;;
17207;SDS011;8720;48.488;9.202;2023-04-03T13:39:06;3.50;;;2.43;;
17207;SDS011;8720;48.488;9.202;2023-04-03T13:41:49;2.30;;;2.10;;
17207;SDS011;8720;48.488;9.202;2023-04-03T13:44:23;3.93;;;2.53;;
17207;SDS011;8720;48.488;9.202;2023-04-03T13:47:01;2.50;;;2.23;;
17207;SDS011;8720;48.488;9.202;2023-04-03T13:49:45;3.70;;;2.43;;
17207;SDS011;8720;48.488;9.202;2023-04-03T13:52:27;2.90;;;2.13;;
17207;SDS011;8720;48.488;9.202;2023-04-03T13:55:03;3.23;;;2.73;;
17207;SDS011;8720;48.488;9.202;2023-04-03T14:01:42;2.50;;;2.30;;
17207;SDS011;8720;48.488;9.202;2023-04-03T14:04:17;3.00;;;2.60;;
17207;SDS011;8720;48.488;9.202;2023-04-03T14:07:03;2.60;;;2.07;;
17207;SDS011;8720;48.488;9.202;2023-04-03T14:10:30;3.00;;;2.10;;
17207;SDS011;8720;48.488;9.202;2023-04-03T14:13:16;3.77;;;2.40;;
17207;SDS011;8720;48.488;9.202;2023-04-03T14:16:02;2.90;;;2.60;;
17207;SDS011;8720;48.488;9.202;2023-04-03T14:18:43;3.40;;;2.80;;
17207;SDS011;8720;48.488;9.202;2023-04-03T14:21:11;3.20;;;2.33;;
17207;SDS011;8720;48.488;9.202;2023-04-03T14:23:41;4.77;;;2.77;;
17207;SDS011;8720;48.488;9.202;2023-04-03T14:26:11;3.23;;;2.70;;
17207;SDS011;8720;48.488;9.202;2023-04-03T14:28:43;2.70;;;2.40;;
17207;SDS011;8720;48.488;9.202;2023-04-03T14:31:12;4.60;;;2.73;;
17207;SDS011;8720;48.488;9.202;2023-04-03T14:33:41;3.80;;;3.10;;
17207;SDS011;8720;48.488;9.202;2023-04-03T14:39:17;3.40;;;2.83;;
17207;SDS011;8720;48.488;9.202;2023-04-03T14:42:13;4.70;;;3.53;;
17207;SDS011;8720;48.488;9.202;2023-04-03T14:45:48;8.57;;;7.30;;
17207;SDS011;8720;48.488;9.202;2023-04-03T14:48:18;4.40;;;3.80;;
17207;SDS011;8720;48.488;9.202;2023-04-03T14:50:52;4.83;;;2.60;;
17207;SDS011;8720;48.488;9.202;2023-04-03T14:53:20;4.27;;;2.93;;
17207;SDS011;8720;48.488;9.202;2023-04-03T14:55:51;2.90;;;2.60;;
17207;SDS011;8720;48.488;9.202;2023-04-03T14:58:20;2.90;;;2.70;;
17207;SDS011;8720;48.488;9.202;2023-04-03T15:01:10;4.03;;;3.20;;
17207;SDS011;8720;48.488;9.202;2023-04-03T15:03:41;4.10;;;3.47;;
17207;SDS011;8720;48.488;9.202;2023-04-03T15:06:38;6.23;;;5.63;;
17207;SDS011;8720;48.488;9.202;2023-04-03T15:21:59;3.20;;;2.90;;
17207;SDS011;8720;48.488;9.202;2023-04-03T15:26:01;4.27;;;3.87;;
17207;SDS011;8720;48.488;9.202;2023-04-03T15:28:38;3.00;;;2.70;;
17207;SDS011;8720;48.488;9.202;2023-04-03T15:32:44;3.00;;;2.70;;
17207;SDS011;8720;48.488;9.202;2023-04-03T15:35:26;4.27;;;3.10;;
17207;SDS011;8720;48.488;9.202;2023-04-03T15:38:17;4.10;;;2.53;;
17207;SDS011;8720;48.488;9.202;2023-04-03T15:40:51;4.80;;;2.90;;
17207;SDS011;8720;48.488;9.202;2023-04-03T15:43:50;4.37;;;2.77;;
17207;SDS011;8720;48.488;9.202;2023-04-03T15:46:27;7.80;;;2.60;;
17207;SDS011;8720;48.488;9.202;2023-04-03T15:49:10;4.37;;;2.57;;
17207;SDS011;8720;48.488;9.202;2023-04-03T15:55:48;3.77;;;2.50;;
17207;SDS011;8720;48.488;9.202;2023-04-03T15:59:00;5.50;;;2.97;;
17207;SDS011;8720;48.488;9.202;2023-04-03T16:02:04;3.37;;;2.40;;
17207;SDS011;8720;48.488;9.202;2023-04-03T16:05:02;2.50;;;2.30;;
17207;SDS011;8720;48.488;9.202;2023-04-03T16:08:19;4.13;;;3.07;;
17207;SDS011;8720;48.488;9.202;2023-04-03T16:11:14;3.57;;;2.80;;
17207;SDS011;8720;48.488;9.202;2023-04-03T16:13:52;4.33;;;3.40;;
17207;SDS011;8720;48.488;9.202;2023-04-03T16:16:20;5.17;;;3.07;;
17207;SDS011;8720;48.488;9.202;2023-04-03T16:18:48;6.20;;;2.97;;
17207;SDS011;8720;48.488;9.202;2023-04-03T16:25:10;3.57;;;3.23;;
17207;SDS011;8720;48.488;9.202;2023-04-03T16:28:09;3.70;;;2.93;;
17207;SDS011;8720;48.488;9.202;2023-04-03T16:30:52;3.97;;;3.37;;
17207;SDS011;8720;48.488;9.202;2023-04-03T16:33:46;3.03;;;2.73;;
17207;SDS011;8720;48.488;9.202;2023-04-03T16:36:15;3.83;;;2.47;;
17207;SDS011;8720;48.488;9.202;2023-04-03T16:38:46;2.83;;;2.60;;
17207;SDS011;8720;48.488;9.202;2023-04-03T16:41:36;3.77;;;3.00;;
17207;SDS011;8720;48.488;9.202;2023-04-03T16:44:07;2.40;;;2.20;;
17207;SDS011;8720;48.488;9.202;2023-04-03T16:46:36;2.97;;;2.67;;
17207;SDS011;8720;48.488;9.202;2023-04-03T16:49:13;6.10;;;3.00;;
17207;SDS011;8720;48.488;9.202;2023-04-03T16:51:43;2.60;;;2.40;;
17207;SDS011;8720;48.488;9.202;2023-04-03T16:54:11;2.90;;;2.57;;
17207;SDS011;8720;48.488;9.202;2023-04-03T16:56:39;3.60;;;2.50;;
17207;SDS011;8720;48.488;9.202;2023-04-03T16:59:17;3.20;;;2.73;;
17207;SDS011;8720;48.488;9.202;2023-04-03T17:01:55;4.33;;;2.97;;